createdAt,value
2022-10-05T05:18:02.851Z,73.06
2022-10-05T05:20:20.378Z,72.07
2022-10-05T05:22:31.035Z,71.49
2022-10-05T05:24:49.901Z,71.23
2022-10-05T05:27:10.629Z,70.93
2022-10-05T05:29:23.094Z,70.48
2022-10-05T05:31:32.181Z,70.34
2022-10-05T05:33:48.727Z,70.19
2022-10-05T05:36:10.549Z,69.83
2022-10-05T05:38:25.623Z,69.47
2022-10-05T05:40:33.153Z,69.32
2022-10-05T05:42:46.280Z,69.12
2022-10-05T05:44:51.767Z,68.91
2022-10-05T05:47:04.347Z,68.81
2022-10-05T05:49:16.803Z,68.54
2022-10-05T05:51:26.622Z,68.45
2022-10-05T05:53:34.079Z,68.38
2022-10-05T05:55:43.444Z,68.73
2022-10-05T05:57:52.183Z,68.25
2022-10-05T06:00:03.911Z,68.04
2022-10-05T06:02:11.924Z,67.99
2022-10-05T06:04:20.708Z,67.77
2022-10-05T06:06:26.929Z,67.58
2022-10-05T06:08:36.533Z,67.48
2022-10-05T06:10:43.759Z,67.35
2022-10-05T06:12:51.648Z,66.98
2022-10-05T06:15:00.060Z,67.01
2022-10-05T06:17:07.777Z,66.88
2022-10-05T06:19:13.303Z,66.74
2022-10-05T06:21:22.973Z,66.73
2022-10-05T06:23:34.274Z,66.73
2022-10-05T06:25:48.151Z,66.59
2022-10-05T06:28:04.704Z,66.39
2022-10-05T06:30:11.129Z,66.12
2022-10-05T06:32:25.918Z,66.14
2022-10-05T06:34:49.643Z,65.97
2022-10-05T06:37:00.116Z,65.79
2022-10-05T06:39:41.285Z,65.66
2022-10-05T06:42:00.995Z,65.50
2022-10-05T06:44:10.796Z,65.63
2022-10-05T06:46:22.932Z,65.43
2022-10-05T06:48:33.455Z,65.25
2022-10-05T06:50:39.719Z,65.18
2022-10-05T06:52:55.098Z,65.13
2022-10-05T06:55:14.545Z,65.07
2022-10-05T06:57:36.586Z,64.94
2022-10-05T06:59:49.648Z,65.02
2022-10-05T07:02:02.866Z,65.04
2022-10-05T07:04:21.172Z,64.98
2022-10-05T07:06:27.915Z,64.71
2022-10-05T07:08:47.121Z,64.86
2022-10-05T07:11:03.448Z,64.90
2022-10-05T07:13:18.543Z,64.82
2022-10-05T07:15:36.844Z,64.78
2022-10-05T07:17:52.929Z,64.75
2022-10-05T07:20:03.986Z,64.82
2022-10-05T07:22:30.450Z,64.83
2022-10-05T07:24:43.844Z,64.73
2022-10-05T07:26:51.016Z,64.71
2022-10-05T07:29:14.222Z,64.97
2022-10-05T07:31:29.680Z,64.69
2022-10-05T07:33:39.715Z,64.82
2022-10-05T07:36:10.235Z,64.78
2022-10-05T07:38:21.001Z,64.83
2022-10-05T07:40:36.570Z,64.72
2022-10-05T07:42:52.268Z,64.87
2022-10-05T07:45:01.395Z,64.94
2022-10-05T07:47:11.735Z,64.78
2022-10-05T07:49:23.074Z,64.79
2022-10-05T07:51:32.442Z,65.11
2022-10-05T07:53:38.804Z,65.07
2022-10-05T07:55:49.132Z,64.99
2022-10-05T07:57:57.311Z,64.90
2022-10-05T08:00:05.369Z,64.97
2022-10-05T08:02:20.403Z,64.73
2022-10-05T08:04:28.459Z,64.89
2022-10-05T08:06:49.376Z,64.89
2022-10-05T08:08:58.259Z,64.90
2022-10-05T08:11:08.541Z,64.74
2022-10-05T08:13:20.097Z,64.71
2022-10-05T08:15:27.181Z,64.58
2022-10-05T08:17:40.911Z,64.84
2022-10-05T08:19:48.655Z,64.71
2022-10-05T08:22:00.709Z,64.72
2022-10-05T08:24:12.080Z,64.79
2022-10-05T08:26:25.817Z,64.63
2022-10-05T08:28:35.218Z,64.36
2022-10-05T08:30:54.139Z,64.44
2022-10-05T08:33:09.006Z,64.43
2022-10-05T08:35:27.312Z,64.44
2022-10-05T08:37:37.469Z,64.50
2022-10-05T08:39:42.718Z,64.38
2022-10-05T08:42:22.571Z,64.58
2022-10-05T08:45:10.531Z,64.24
2022-10-05T08:47:34.392Z,64.43
2022-10-05T08:50:04.374Z,64.50
2022-10-05T08:52:29.888Z,64.32
2022-10-05T08:55:01.964Z,64.37
2022-10-05T08:57:29.578Z,64.02
2022-10-05T08:59:58.832Z,64.29
2022-10-05T09:02:20.710Z,64.28
2022-10-05T09:04:44.151Z,64.00
2022-10-05T09:07:07.515Z,64.03
2022-10-05T09:09:49.291Z,64.19
2022-10-05T09:12:07.495Z,64.11
2022-10-05T09:14:39.010Z,64.01
2022-10-05T09:17:08.760Z,64.06
2022-10-05T09:19:43.133Z,63.83
2022-10-05T09:21:58.543Z,63.85
2022-10-05T09:24:16.803Z,63.82
2022-10-05T09:26:45.102Z,63.80
2022-10-05T09:29:12.166Z,63.63
2022-10-05T09:31:36.817Z,63.93
2022-10-05T09:34:14.089Z,63.52
2022-10-05T09:36:43.642Z,63.76
2022-10-05T09:39:14.748Z,63.53
2022-10-05T09:41:37.007Z,63.28
2022-10-05T09:44:08.421Z,63.29
2022-10-05T09:46:46.092Z,63.11
2022-10-05T09:49:21.772Z,63.14
2022-10-05T09:51:54.357Z,62.76
2022-10-05T09:54:52.891Z,62.82
2022-10-05T09:57:24.136Z,63.04
2022-10-05T09:59:52.907Z,62.99
2022-10-05T10:02:16.913Z,63.02
2022-10-05T10:04:30.501Z,62.68
2022-10-05T10:06:55.131Z,62.70
2022-10-05T10:09:17.607Z,62.73
2022-10-05T10:11:45.337Z,62.32
2022-10-05T10:14:18.358Z,62.16
2022-10-05T10:16:45.778Z,62.09
2022-10-05T10:19:17.989Z,62.19
2022-10-05T10:21:46.132Z,62.20
2022-10-05T10:24:03.686Z,61.99
2022-10-05T10:26:44.175Z,62.14
2022-10-05T10:29:03.172Z,61.84
2022-10-05T10:31:40.505Z,61.55
2022-10-05T10:34:03.298Z,61.80
2022-10-05T10:36:13.451Z,61.49
2022-10-05T10:38:41.521Z,61.52
2022-10-05T10:41:12.017Z,61.18
2022-10-05T10:43:36.873Z,61.20
2022-10-05T10:45:53.781Z,61.04
2022-10-05T10:48:11.440Z,61.18
2022-10-05T10:50:48.697Z,61.07
2022-10-05T10:53:09.920Z,60.97
2022-10-05T10:55:31.875Z,60.76
2022-10-05T10:57:51.245Z,60.77
2022-10-05T11:00:29.037Z,60.53
2022-10-05T11:02:57.440Z,60.38
2022-10-05T11:05:23.326Z,60.21
2022-10-05T11:07:57.131Z,60.17
2022-10-05T11:10:31.288Z,59.83
2022-10-05T11:13:24.964Z,59.96
2022-10-05T11:15:53.184Z,59.64
2022-10-05T11:18:11.633Z,59.86
2022-10-05T11:20:39.448Z,59.60
2022-10-05T11:23:27.637Z,59.49
2022-10-05T11:25:51.350Z,59.13
2022-10-05T11:28:24.136Z,59.12
2022-10-05T11:30:50.296Z,58.98
2022-10-05T11:33:24.407Z,58.52
2022-10-05T11:35:52.079Z,58.52
2022-10-05T11:38:09.592Z,58.34
2022-10-05T11:40:34.280Z,58.47
2022-10-05T11:43:11.124Z,57.80
2022-10-05T11:45:23.920Z,57.82
2022-10-05T11:47:30.465Z,57.67
2022-10-05T11:49:54.724Z,57.64
2022-10-05T11:52:12.964Z,57.99
2022-10-05T11:54:58.463Z,57.81
2022-10-05T11:57:05.032Z,57.33
2022-10-05T11:59:18.848Z,57.21
2022-10-05T12:01:30.541Z,57.22
2022-10-05T12:03:48.062Z,57.37
2022-10-05T12:06:21.466Z,56.87
2022-10-05T12:08:31.812Z,57.14
2022-10-05T12:10:44.152Z,57.03
2022-10-05T12:13:01.319Z,56.71
2022-10-05T12:15:18.444Z,56.75
2022-10-05T12:17:26.279Z,57.01
2022-10-05T12:19:36.517Z,56.66
2022-10-05T12:21:45.926Z,56.59
2022-10-05T12:23:54.946Z,56.52
2022-10-05T12:26:03.104Z,56.27
2022-10-05T12:28:11.990Z,56.39
2022-10-05T12:30:27.454Z,56.31
2022-10-05T12:32:35.426Z,56.42
2022-10-05T12:34:48.695Z,56.25
2022-10-05T12:37:04.221Z,56.45
2022-10-05T12:39:17.793Z,56.14
2022-10-05T12:41:26.118Z,56.22
2022-10-05T12:43:38.600Z,56.05
2022-10-05T12:45:55.351Z,55.72
2022-10-05T12:48:15.493Z,56.14
2022-10-05T12:50:23.412Z,55.97
2022-10-05T12:52:46.851Z,55.72
2022-10-05T12:54:58.892Z,55.49
2022-10-05T12:57:10.495Z,55.62
2022-10-05T12:59:22.773Z,55.67
2022-10-05T13:01:36.640Z,55.64
2022-10-05T13:03:45.637Z,55.87
2022-10-05T13:06:01.679Z,55.77
2022-10-05T13:08:14.768Z,55.82
2022-10-05T13:10:31.609Z,55.72
2022-10-05T13:12:47.975Z,55.63
2022-10-05T13:15:02.776Z,55.67
2022-10-05T13:17:15.507Z,55.46
2022-10-05T13:19:35.366Z,55.30
2022-10-05T13:21:59.048Z,55.50
2022-10-05T13:24:10.681Z,55.24
2022-10-05T13:26:18.616Z,55.17
2022-10-05T13:28:30.890Z,55.59
2022-10-05T13:30:35.131Z,55.06
2022-10-05T13:32:48.395Z,55.12
2022-10-05T13:34:58.536Z,55.42
2022-10-05T13:37:12.453Z,54.98
2022-10-05T13:39:30.308Z,55.21
2022-10-05T13:41:43.804Z,55.22
2022-10-05T13:43:59.914Z,55.01
2022-10-05T13:46:12.723Z,55.17
2022-10-05T13:48:28.285Z,54.66
2022-10-05T13:50:34.649Z,54.57
2022-10-05T13:52:48.898Z,54.61
2022-10-05T13:54:59.762Z,54.59
2022-10-05T13:57:12.098Z,54.61
2022-10-05T13:59:25.798Z,54.85
2022-10-05T14:01:36.603Z,54.80
2022-10-05T14:03:42.347Z,54.83
2022-10-05T14:05:56.374Z,54.75
2022-10-05T14:08:16.843Z,55.08
2022-10-05T14:10:35.820Z,54.95
2022-10-05T14:12:42.078Z,55.11
2022-10-05T14:14:48.548Z,55.18
2022-10-05T14:16:55.425Z,54.90
2022-10-05T14:19:18.527Z,54.88
2022-10-05T14:21:23.381Z,55.18
2022-10-05T14:23:27.903Z,55.15
2022-10-05T14:25:31.607Z,54.70
2022-10-05T14:27:36.336Z,55.24
2022-10-05T14:29:40.052Z,54.83
2022-10-05T14:31:51.111Z,54.83
2022-10-05T14:33:54.404Z,54.85
2022-10-05T14:35:59.218Z,54.96
2022-10-05T14:38:04.690Z,55.00
2022-10-05T14:40:24.445Z,55.27
2022-10-05T14:42:29.980Z,55.07
2022-10-05T14:44:33.816Z,54.80
2022-10-05T14:46:38.542Z,54.33
2022-10-05T14:48:43.670Z,54.45
2022-10-05T14:50:54.979Z,54.42
2022-10-05T14:53:16.405Z,53.89
2022-10-05T14:55:31.298Z,53.81
2022-10-05T14:57:43.405Z,53.68
2022-10-05T15:00:04.022Z,53.68
2022-10-05T15:02:31.665Z,53.53
2022-10-05T15:04:43.448Z,53.70
2022-10-05T15:06:55.537Z,53.22
2022-10-05T15:09:32.678Z,53.21
2022-10-05T15:11:42.475Z,53.13
2022-10-05T15:13:48.620Z,53.05
2022-10-05T15:15:54.596Z,53.22
2022-10-05T15:18:02.588Z,53.36
2022-10-05T15:20:18.704Z,53.57
2022-10-05T15:22:31.593Z,53.42
2022-10-05T15:24:43.720Z,53.36
2022-10-05T15:26:51.419Z,53.45
2022-10-05T15:29:01.325Z,53.61
2022-10-05T15:31:06.658Z,53.86
2022-10-05T15:33:18.313Z,53.76
2022-10-05T15:35:45.804Z,53.84
2022-10-05T15:37:54.898Z,54.04
2022-10-05T15:40:03.647Z,53.76
2022-10-05T15:42:11.375Z,53.86
2022-10-05T15:44:26.029Z,53.81
2022-10-05T15:46:35.159Z,53.84
2022-10-05T15:48:46.771Z,54.09
2022-10-05T15:50:56.854Z,54.08
2022-10-05T15:53:11.929Z,53.70
2022-10-05T15:55:27.919Z,54.13
2022-10-05T15:57:40.012Z,54.15
2022-10-05T15:59:54.059Z,54.07
2022-10-05T16:02:01.460Z,54.04
2022-10-05T16:04:13.951Z,53.61
2022-10-05T16:06:44.164Z,53.77
2022-10-05T16:08:59.243Z,53.74
2022-10-05T16:11:09.813Z,53.99
2022-10-05T16:13:22.705Z,53.55
2022-10-05T16:15:33.330Z,53.78
2022-10-05T16:17:51.021Z,53.67
2022-10-05T16:20:06.203Z,53.60
2022-10-05T16:22:20.510Z,53.61
2022-10-05T16:24:40.920Z,54.08
2022-10-05T16:26:59.766Z,53.69
2022-10-05T16:29:15.719Z,53.69
2022-10-05T16:31:23.333Z,53.78
2022-10-05T16:33:37.313Z,54.01
2022-10-05T16:35:47.500Z,53.88
2022-10-05T16:38:04.851Z,53.88
2022-10-05T16:40:19.187Z,53.67
2022-10-05T16:42:36.721Z,53.91
2022-10-05T16:44:48.008Z,53.86
2022-10-05T16:46:57.403Z,54.21
2022-10-05T16:49:10.455Z,53.97
2022-10-05T16:51:32.083Z,53.98
2022-10-05T16:53:39.808Z,54.13
2022-10-05T16:55:48.190Z,53.94
2022-10-05T16:57:56.902Z,53.75
2022-10-05T17:00:20.262Z,54.10
2022-10-05T17:02:35.642Z,53.97
2022-10-05T17:04:56.735Z,53.70
2022-10-05T17:07:23.273Z,53.96
2022-10-05T17:09:41.117Z,53.58
2022-10-05T17:11:58.237Z,53.41
2022-10-05T17:14:28.034Z,53.45
2022-10-05T17:16:41.050Z,53.79
2022-10-05T17:19:15.316Z,53.72
2022-10-05T17:21:23.034Z,53.68
2022-10-05T17:23:53.426Z,53.48
2022-10-05T17:25:59.981Z,53.75
2022-10-05T17:28:22.057Z,53.44
2022-10-05T17:30:48.411Z,53.81
2022-10-05T17:33:00.598Z,53.93
2022-10-05T17:35:20.186Z,53.94
2022-10-05T17:37:36.318Z,53.63
2022-10-05T17:39:49.001Z,54.01
2022-10-05T17:41:51.852Z,54.10
2022-10-05T17:44:26.236Z,54.17
2022-10-05T17:46:46.579Z,53.74
2022-10-05T17:49:18.456Z,54.25
2022-10-05T17:52:13.043Z,54.04
2022-10-05T17:54:38.412Z,54.28
2022-10-05T17:57:23.276Z,54.31
2022-10-05T17:59:39.294Z,54.49
2022-10-05T18:01:55.018Z,54.46
2022-10-05T18:04:33.605Z,54.20
2022-10-05T18:06:38.131Z,54.44
2022-10-05T18:08:42.139Z,54.44
2022-10-05T18:11:17.217Z,54.64
2022-10-05T18:13:34.995Z,54.63
2022-10-05T18:15:48.699Z,54.42
2022-10-05T18:17:57.261Z,54.45
2022-10-05T18:20:15.048Z,54.64
2022-10-05T18:22:30.285Z,54.51
2022-10-05T18:24:52.956Z,54.84
2022-10-05T18:27:08.387Z,54.94
2022-10-05T18:29:44.822Z,55.02
2022-10-05T18:31:56.303Z,55.19
2022-10-05T18:34:13.278Z,55.24
2022-10-05T18:36:38.116Z,55.30
2022-10-05T18:38:53.096Z,55.36
2022-10-05T18:41:03.049Z,55.43
2022-10-05T18:43:18.807Z,55.67
2022-10-05T18:45:28.221Z,55.58
2022-10-05T18:47:39.039Z,55.33
2022-10-05T18:50:11.833Z,55.94
2022-10-05T18:52:24.614Z,55.46
2022-10-05T18:54:44.075Z,55.64
2022-10-05T18:56:50.949Z,56.05
2022-10-05T18:59:08.467Z,55.77
2022-10-05T19:01:30.556Z,55.98
2022-10-05T19:03:38.706Z,56.43
2022-10-05T19:05:52.746Z,55.99
2022-10-05T19:08:08.760Z,56.09
2022-10-05T19:10:20.895Z,56.49
2022-10-05T19:12:37.007Z,56.30
2022-10-05T19:14:52.319Z,56.26
2022-10-05T19:17:20.676Z,56.36
2022-10-05T19:19:38.923Z,56.58
2022-10-05T19:21:51.119Z,56.68
2022-10-05T19:24:22.994Z,56.59
2022-10-05T19:26:42.240Z,57.01
2022-10-05T19:28:58.870Z,56.97
2022-10-05T19:31:11.800Z,57.06
2022-10-05T19:33:32.281Z,57.24
2022-10-05T19:35:46.703Z,56.98
2022-10-05T19:38:03.136Z,57.06
2022-10-05T19:40:17.453Z,57.55
2022-10-05T19:42:38.145Z,57.17
2022-10-05T19:44:53.993Z,57.07
2022-10-05T19:47:01.388Z,57.56
2022-10-05T19:49:04.408Z,57.58
2022-10-05T19:51:15.855Z,57.59
2022-10-05T19:53:26.513Z,57.10
2022-10-05T19:55:35.058Z,57.52
2022-10-05T19:57:47.563Z,57.38
2022-10-05T19:59:50.968Z,57.41
2022-10-05T20:01:56.853Z,57.73
2022-10-05T20:04:00.211Z,57.35
2022-10-05T20:06:05.369Z,57.63
2022-10-05T20:08:15.290Z,57.80
2022-10-05T20:10:29.543Z,57.97
2022-10-05T20:12:48.492Z,57.55
2022-10-05T20:15:25.159Z,57.87
2022-10-05T20:17:45.777Z,57.97
2022-10-05T20:20:06.295Z,57.84
2022-10-05T20:22:35.233Z,57.80
2022-10-05T20:24:51.756Z,58.20
2022-10-05T20:27:10.456Z,58.16
2022-10-05T20:29:16.056Z,57.82
2022-10-05T20:31:20.166Z,58.14
2022-10-05T20:33:26.567Z,58.04
2022-10-05T20:35:31.027Z,58.27
2022-10-05T20:37:34.333Z,58.40
2022-10-05T20:39:37.106Z,58.29
2022-10-05T20:41:40.012Z,58.07
2022-10-05T20:43:44.595Z,58.69
2022-10-05T20:45:47.268Z,58.40
2022-10-05T20:47:50.734Z,58.31
2022-10-05T20:50:05.457Z,58.71
2022-10-05T20:52:12.933Z,58.78
2022-10-05T20:54:18.888Z,58.98
2022-10-05T20:56:21.978Z,58.90
2022-10-05T20:58:25.133Z,58.96
2022-10-05T21:00:52.226Z,58.82
2022-10-05T21:02:58.205Z,59.13
2022-10-05T21:05:00.910Z,59.38
